createdAt,value
2023-01-02T00:12:39.441Z,12.8
2023-01-02T00:22:39.825Z,12.4
2023-01-02T00:42:41.006Z,12.1
2023-01-02T00:52:41.768Z,12.3
2023-01-02T01:02:42.579Z,12.5
2023-01-02T01:12:43.157Z,12.9
2023-01-02T01:22:43.747Z,13.2
2023-01-02T01:32:44.077Z,13.5
2023-01-02T01:42:44.719Z,13.8
2023-01-02T01:52:44.834Z,13.7
2023-01-02T02:12:45.545Z,13.4
2023-01-02T02:32:46.669Z,13
2023-01-02T02:42:46.753Z,12.8
2023-01-02T02:52:47.699Z,12.7
2023-01-02T03:02:48.322Z,12.5
2023-01-02T03:12:49.175Z,12.4
2023-01-02T03:22:50.021Z,12.4
2023-01-02T03:52:52.427Z,12.6
2023-01-02T04:02:52.614Z,12.5
2023-01-02T04:32:54.269Z,12.1
2023-01-02T04:42:54.461Z,12.1
2023-01-02T04:52:54.832Z,12.2
2023-01-02T05:02:55.149Z,12.1
2023-01-02T05:12:55.737Z,12.3
2023-01-02T05:22:56.642Z,12.4
2023-01-02T05:42:58.163Z,12.7
2023-01-02T06:13:00.206Z,12.8
2023-01-02T06:43:01.632Z,12.5
2023-01-02T07:03:02.477Z,12.4
2023-01-02T07:23:03.501Z,12.4
2023-01-02T07:33:03.787Z,12.4
2023-01-02T07:43:04.029Z,12.3
2023-01-02T08:03:05.454Z,12.2
2023-01-02T08:13:05.644Z,12.3
2023-01-02T08:23:06.412Z,12.4
2023-01-02T08:43:07.316Z,12.3
2023-01-02T09:03:08.202Z,11.8
2023-01-02T09:13:08.533Z,11.6
2023-01-02T09:23:14.997Z,11.1
2023-01-02T09:33:15.236Z,10.9
2023-01-02T09:43:15.643Z,10.7
2023-01-02T10:03:17.225Z,10.5
2023-01-02T10:13:17.953Z,10.4
2023-01-02T10:23:18.217Z,10.4
2023-01-02T10:33:18.737Z,10.3
2023-01-02T10:43:19.038Z,10.3
2023-01-02T10:43:40.954Z,10.3
2023-01-02T10:53:25.451Z,10.3
2023-01-02T11:03:26.487Z,10.3
2023-01-02T11:13:26.671Z,10.4
2023-01-02T11:43:29.044Z,10.2
2023-01-02T12:13:32.016Z,10.4
2023-01-02T12:23:32.363Z,10.5
2023-01-02T13:23:36.997Z,10.1
2023-01-02T14:33:41.801Z,9.8
2023-01-02T14:43:42.294Z,9.7
2023-01-02T14:53:42.514Z,9.7
2023-01-02T15:03:42.782Z,9.6
2023-01-02T15:14:03.574Z,9.5
2023-01-02T15:23:44.508Z,9.4
2023-01-02T15:33:45.321Z,9.4
2023-01-02T15:43:45.913Z,9.4
2023-01-02T15:53:46.027Z,9.4
2023-01-02T16:13:47.222Z,9.3
2023-01-02T16:23:48.081Z,9.2
2023-01-02T16:33:48.573Z,9.2
2023-01-02T16:43:49.571Z,9.2
2023-01-02T16:53:50.217Z,9.2
2023-01-02T17:03:50.542Z,9.2
2023-01-02T17:13:51.481Z,9.3
2023-01-02T17:23:52.312Z,9.3
2023-01-02T17:33:52.517Z,9.4
2023-01-02T17:44:01.463Z,8.4
2023-01-02T17:53:53.703Z,7.8
2023-01-02T18:03:54.771Z,7.8
2023-01-02T18:13:55.667Z,7.8
2023-01-02T18:23:55.920Z,7.8
2023-01-02T18:33:56.246Z,7.8
2023-01-02T18:43:56.393Z,7.9
2023-01-02T19:03:57.669Z,8.3
2023-01-02T19:13:58.971Z,8.4
2023-01-02T19:23:58.142Z,8.5
2023-01-02T19:33:58.762Z,8.5
2023-01-02T19:43:59.587Z,8.6
2023-01-02T19:54:03.926Z,8.6
2023-01-02T20:04:00.844Z,8.5
2023-01-02T20:14:01.157Z,8.5
2023-01-02T20:24:02.031Z,8.5
2023-01-02T20:34:02.497Z,8.5
2023-01-02T20:44:02.646Z,8.4
2023-01-02T20:54:03.088Z,8.4
2023-01-02T21:04:03.859Z,8.3
2023-01-02T21:14:04.429Z,8.3
2023-01-02T21:24:04.450Z,8.2
2023-01-02T21:34:05.074Z,8
2023-01-02T21:44:05.376Z,7.9
2023-01-02T21:54:05.909Z,7.8
2023-01-02T22:04:06.756Z,7.7
2023-01-02T22:14:07.613Z,7.5
2023-01-02T22:24:08.413Z,7.3
2023-01-02T22:34:08.689Z,7.2
2023-01-02T22:44:09.213Z,7.2
2023-01-02T22:54:09.742Z,7
2023-01-02T23:04:10.379Z,6.9
2023-01-02T23:14:10.765Z,6.8
2023-01-02T23:24:11.726Z,6.7
2023-01-02T23:34:12.759Z,6.6
2023-01-02T23:54:13.472Z,6.6
